createdAt,value
2023-02-03T00:01:35.618Z,100064.97
2023-02-03T00:04:02.373Z,100066.25
2023-02-03T00:06:29.036Z,100078.94
2023-02-03T00:08:56.606Z,100060.88
2023-02-03T00:11:23.298Z,100106.00
2023-02-03T00:13:49.939Z,100097.47
2023-02-03T00:16:16.500Z,100102.59
2023-02-03T00:18:43.108Z,100123.59
2023-02-03T00:21:09.666Z,100136.72
2023-02-03T00:23:36.438Z,100170.44
2023-02-03T00:26:09.033Z,100146.22
2023-02-03T00:28:36.469Z,100167.31
2023-02-03T00:31:03.102Z,100149.53
2023-02-03T00:33:29.742Z,100196.53
2023-02-03T00:35:56.281Z,100173.84
2023-02-03T00:38:22.965Z,100183.47
2023-02-03T00:40:53.678Z,100181.06
2023-02-03T00:43:20.914Z,100175.84
2023-02-03T00:45:47.965Z,100167.22
2023-02-03T00:48:14.562Z,100165.97
2023-02-03T00:50:46.149Z,100184.78
2023-02-03T00:53:12.852Z,100194.06
2023-02-03T00:55:39.483Z,100206.44
2023-02-03T00:58:06.157Z,100206.84
2023-02-03T01:00:32.733Z,100214.28
2023-02-03T01:02:59.369Z,100229.59
2023-02-03T01:05:25.897Z,100203.81
2023-02-03T01:07:52.598Z,100221.09
2023-02-03T01:10:19.475Z,100221.09
2023-02-03T01:12:46.078Z,100215.22
2023-02-03T01:15:12.630Z,100224.19
2023-02-03T01:17:39.290Z,100246.28
2023-02-03T01:20:06.175Z,100244.69
2023-02-03T01:22:32.813Z,100260.69
2023-02-03T01:24:59.365Z,100252.00
2023-02-03T01:27:26.020Z,100256.22
2023-02-03T01:29:52.656Z,100269.16
2023-02-03T01:32:19.506Z,100270.69
2023-02-03T01:34:46.052Z,100266.88
2023-02-03T01:37:14.521Z,100276.44
2023-02-03T01:39:41.129Z,100267.03
2023-02-03T01:42:09.193Z,100279.94
2023-02-03T01:44:40.266Z,100293.00
2023-02-03T01:47:13.832Z,100293.41
2023-02-03T01:49:42.388Z,100296.09
2023-02-03T01:52:09.040Z,100294.69
2023-02-03T01:54:39.204Z,100297.06
2023-02-03T01:57:10.521Z,100292.56
2023-02-03T01:59:37.374Z,100297.47
2023-02-03T02:02:04.830Z,100289.91
2023-02-03T02:04:46.300Z,100298.16
2023-02-03T02:07:14.635Z,100310.09
2023-02-03T02:09:41.429Z,100319.63
2023-02-03T02:12:09.714Z,100306.44
2023-02-03T02:14:36.432Z,100317.34
2023-02-03T02:17:13.030Z,100305.31
2023-02-03T02:19:45.671Z,100303.06
2023-02-03T02:22:41.672Z,100308.09
2023-02-03T02:25:26.795Z,100336.44
2023-02-03T02:28:11.511Z,100354.81
2023-02-03T02:30:50.629Z,100356.31
2023-02-03T02:33:18.084Z,100353.00
2023-02-03T02:35:51.319Z,100360.41
2023-02-03T02:38:37.749Z,100373.31
2023-02-03T02:41:08.727Z,100351.44
2023-02-03T02:43:43.179Z,100393.63
2023-02-03T02:46:19.498Z,100399.09
2023-02-03T02:48:52.088Z,100387.03
2023-02-03T02:51:20.696Z,100389.81
2023-02-03T02:53:51.902Z,100414.38
2023-02-03T02:56:20.125Z,100408.81
2023-02-03T02:58:49.734Z,100403.50
2023-02-03T03:01:16.601Z,100425.19
2023-02-03T03:03:45.123Z,100422.94
2023-02-03T03:06:17.926Z,100427.44
2023-02-03T03:08:55.654Z,100439.19
2023-02-03T03:11:22.852Z,100436.53
2023-02-03T03:13:51.010Z,100444.34
2023-02-03T03:16:23.133Z,100453.22
2023-02-03T03:18:52.865Z,100441.66
2023-02-03T03:21:24.614Z,100439.72
2023-02-03T03:23:52.385Z,100455.88
2023-02-03T03:26:28.861Z,100462.56
2023-02-03T03:29:04.056Z,100462.97
2023-02-03T03:31:30.918Z,100489.31
2023-02-03T03:33:57.787Z,100502.44
2023-02-03T03:36:38.846Z,100519.97
2023-02-03T03:39:08.500Z,100534.38
2023-02-03T03:41:44.018Z,100525.09
2023-02-03T03:44:13.276Z,100550.28
2023-02-03T03:46:50.291Z,100536.66
2023-02-03T03:49:18.925Z,100542.69
2023-02-03T03:51:55.099Z,100560.59
2023-02-03T03:54:24.095Z,100557.69
2023-02-03T03:56:53.666Z,100579.84
2023-02-03T03:59:22.776Z,100574.66
2023-02-03T04:01:51.209Z,100602.47
2023-02-03T04:04:18.740Z,100594.84
2023-02-03T04:06:45.259Z,100594.97
2023-02-03T04:09:11.962Z,100598.59
2023-02-03T04:11:57.275Z,100600.19
2023-02-03T04:14:23.952Z,100593.19
2023-02-03T04:16:50.538Z,100611.69
2023-02-03T04:19:17.431Z,100618.38
2023-02-03T04:21:43.997Z,100597.16
2023-02-03T04:24:12.223Z,100621.81
2023-02-03T04:26:38.931Z,100621.59
2023-02-03T04:29:05.547Z,100627.78
2023-02-03T04:31:32.154Z,100629.84
2023-02-03T04:33:58.871Z,100648.72
2023-02-03T04:36:25.427Z,100638.31
2023-02-03T04:38:52.243Z,100662.03
2023-02-03T04:41:18.815Z,100656.44
2023-02-03T04:43:45.482Z,100663.81
2023-02-03T04:46:12.106Z,100672.16
2023-02-03T04:48:38.758Z,100676.63
2023-02-03T04:51:06.655Z,100665.28
2023-02-03T04:53:33.529Z,100676.91
2023-02-03T04:56:00.235Z,100688.13
2023-02-03T04:58:27.091Z,100682.78
2023-02-03T05:00:54.320Z,100686.56
2023-02-03T05:03:22.602Z,100685.84
2023-02-03T05:05:51.152Z,100679.94
2023-02-03T05:08:17.737Z,100695.16
2023-02-03T05:10:44.384Z,100706.66
2023-02-03T05:13:12.082Z,100707.59
2023-02-03T05:15:38.705Z,100693.22
2023-02-03T05:18:05.386Z,100719.34
2023-02-03T05:20:31.956Z,100709.16
2023-02-03T05:22:58.984Z,100727.31
2023-02-03T05:25:25.658Z,100724.06
2023-02-03T05:27:52.456Z,100732.78
2023-02-03T05:30:19.099Z,100726.84
2023-02-03T05:32:45.679Z,100729.63
2023-02-03T05:35:12.382Z,100741.72
2023-02-03T05:37:39.058Z,100748.00
2023-02-03T05:40:24.331Z,100759.84
2023-02-03T05:42:51.163Z,100770.34
2023-02-03T05:45:17.828Z,100780.16
2023-02-03T05:47:44.427Z,100790.78
2023-02-03T05:50:11.035Z,100792.84
2023-02-03T05:52:37.665Z,100802.25
2023-02-03T05:55:04.554Z,100821.13
2023-02-03T05:57:32.404Z,100824.25
2023-02-03T05:59:59.225Z,100827.59
2023-02-03T06:02:25.818Z,100830.75
2023-02-03T06:04:52.508Z,100838.47
2023-02-03T06:07:19.159Z,100843.78
2023-02-03T06:09:45.810Z,100839.41
2023-02-03T06:12:12.411Z,100842.81
2023-02-03T06:14:38.988Z,100848.38
2023-02-03T06:17:05.594Z,100856.59
2023-02-03T06:19:32.149Z,100868.78
2023-02-03T06:21:58.743Z,100869.03
2023-02-03T06:24:25.499Z,100873.78
2023-02-03T06:26:53.195Z,100884.97
2023-02-03T06:29:19.779Z,100896.59
2023-02-03T06:31:46.573Z,100899.97
2023-02-03T06:34:13.213Z,100904.66
2023-02-03T06:36:39.895Z,100916.31
2023-02-03T06:39:06.467Z,100921.91
2023-02-03T06:41:33.184Z,100929.44
2023-02-03T06:43:59.750Z,100934.00
2023-02-03T06:46:29.864Z,100952.50
2023-02-03T06:48:56.722Z,100965.16
2023-02-03T06:51:24.916Z,100980.16
2023-02-03T06:53:51.741Z,100981.09
2023-02-03T06:56:18.336Z,100981.31
2023-02-03T06:58:45.164Z,100994.69
2023-02-03T07:01:11.799Z,101000.66
2023-02-03T07:03:38.432Z,100986.63
2023-02-03T07:06:05.126Z,101001.34
2023-02-03T07:08:31.744Z,101004.34
2023-02-03T07:10:58.346Z,101000.91
2023-02-03T07:13:24.984Z,101009.94
2023-02-03T07:15:51.683Z,101022.56
2023-02-03T07:18:43.476Z,101037.56
2023-02-03T07:21:06.570Z,101043.88
2023-02-03T07:23:33.238Z,101060.03
2023-02-03T07:26:00.800Z,101069.47
2023-02-03T07:28:27.308Z,101061.63
2023-02-03T07:30:54.064Z,101077.75
2023-02-03T07:33:20.634Z,101088.09
2023-02-03T07:35:53.883Z,101089.91
2023-02-03T07:38:20.691Z,101093.09
2023-02-03T07:40:47.323Z,101103.16
2023-02-03T07:43:14.443Z,101095.25
2023-02-03T07:45:41.097Z,101101.53
2023-02-03T07:48:07.795Z,101091.13
2023-02-03T07:50:34.348Z,101087.59
2023-02-03T07:53:01.031Z,101079.53
2023-02-03T07:55:27.654Z,101079.88
2023-02-03T07:57:54.901Z,101073.00
2023-02-03T08:00:21.750Z,101072.75
2023-02-03T08:02:48.561Z,101072.72
2023-02-03T08:05:15.656Z,101072.06
2023-02-03T08:07:43.029Z,101071.72
2023-02-03T08:10:10.285Z,101069.31
2023-02-03T08:12:37.316Z,101087.19
2023-02-03T08:15:04.448Z,101101.31
2023-02-03T08:17:31.187Z,101109.09
2023-02-03T08:19:57.764Z,101115.50
2023-02-03T08:22:24.639Z,101129.00
2023-02-03T08:24:51.361Z,101155.69
2023-02-03T08:27:22.312Z,101177.53
2023-02-03T08:29:49.218Z,101182.72
2023-02-03T08:32:20.138Z,101185.59
2023-02-03T08:34:47.257Z,101194.75
2023-02-03T08:37:14.851Z,101200.47
2023-02-03T08:39:41.688Z,101214.28
2023-02-03T08:42:08.341Z,101212.38
2023-02-03T08:44:35.029Z,101217.50
2023-02-03T08:47:01.857Z,101216.34
2023-02-03T08:49:29.775Z,101222.06
2023-02-03T08:51:56.975Z,101235.69
2023-02-03T08:54:23.967Z,101251.00
2023-02-03T08:56:50.568Z,101257.81
2023-02-03T08:59:17.202Z,101257.16
2023-02-03T09:01:48.569Z,101265.47
2023-02-03T09:04:19.299Z,101261.97
2023-02-03T09:06:47.932Z,101264.31
2023-02-03T09:09:15.081Z,101262.47
2023-02-03T09:11:42.296Z,101267.59
2023-02-03T09:14:09.234Z,101271.94
2023-02-03T09:16:35.988Z,101274.28
2023-02-03T09:19:02.817Z,101283.75
2023-02-03T09:21:33.613Z,101282.69
2023-02-03T09:24:03.296Z,101291.63
2023-02-03T09:26:30.261Z,101284.38
2023-02-03T09:28:56.962Z,101293.97
2023-02-03T09:31:23.687Z,101292.47
2023-02-03T09:33:50.310Z,101296.09
2023-02-03T09:36:16.913Z,101297.06
2023-02-03T09:38:43.534Z,101304.19
2023-02-03T09:41:12.840Z,101302.91
2023-02-03T09:44:00.139Z,101312.72
2023-02-03T09:46:28.412Z,101310.69
2023-02-03T09:48:57.918Z,101313.34
2023-02-03T09:51:42.269Z,101317.19
2023-02-03T09:54:43.405Z,101322.72
2023-02-03T09:57:20.591Z,101323.16
2023-02-03T09:59:47.491Z,101331.38
2023-02-03T10:02:24.102Z,101337.94
2023-02-03T10:05:05.284Z,101343.38
2023-02-03T10:07:39.400Z,101339.44
2023-02-03T10:10:08.980Z,101342.09
2023-02-03T10:12:51.453Z,101349.97
2023-02-03T10:15:36.684Z,101346.66
2023-02-03T10:18:09.616Z,101355.50
2023-02-03T10:20:40.031Z,101358.50
2023-02-03T10:23:10.565Z,101357.09
2023-02-03T10:25:45.851Z,101368.28
2023-02-03T10:28:17.020Z,101367.25
2023-02-03T10:30:46.768Z,101376.81
2023-02-03T10:33:14.344Z,101389.91
2023-02-03T10:35:51.858Z,101388.53
2023-02-03T10:38:38.715Z,101392.59
2023-02-03T10:41:05.635Z,101396.53
2023-02-03T10:43:47.949Z,101394.06
2023-02-03T10:46:35.200Z,101396.59
2023-02-03T10:49:02.270Z,101407.06
2023-02-03T10:51:32.713Z,101413.75
2023-02-03T10:54:00.270Z,101417.38
2023-02-03T10:56:26.810Z,101422.38
2023-02-03T10:58:56.601Z,101426.94
2023-02-03T11:01:25.710Z,101427.69
2023-02-03T11:04:00.468Z,101430.69
2023-02-03T11:06:27.828Z,101433.94
2023-02-03T11:08:54.439Z,101421.69
2023-02-03T11:11:25.002Z,101422.03
2023-02-03T11:14:03.958Z,101421.06
2023-02-03T11:16:32.299Z,101429.34
2023-02-03T11:19:00.680Z,101428.34
2023-02-03T11:21:39.660Z,101436.09
2023-02-03T11:24:06.366Z,101433.66
2023-02-03T11:26:35.425Z,101446.25
2023-02-03T11:29:03.012Z,101443.44
2023-02-03T11:31:32.291Z,101446.97
2023-02-03T11:34:01.785Z,101445.91
2023-02-03T11:36:29.814Z,101444.44
2023-02-03T11:39:17.048Z,101444.94
2023-02-03T11:41:43.947Z,101451.00
2023-02-03T11:44:21.552Z,101455.81
2023-02-03T11:46:59.088Z,101459.75
2023-02-03T11:49:56.549Z,101449.66
2023-02-03T11:52:25.828Z,101450.06
2023-02-03T11:54:55.210Z,101458.25
2023-02-03T11:57:24.979Z,101460.94
2023-02-03T12:00:13.271Z,101467.00
2023-02-03T12:03:14.109Z,101462.66
2023-02-03T12:05:46.616Z,101459.75
2023-02-03T12:08:25.730Z,101472.56
2023-02-03T12:10:58.398Z,101462.66
2023-02-03T12:13:36.804Z,101463.59
2023-02-03T12:16:22.116Z,101461.03
2023-02-03T12:18:57.961Z,101464.34
2023-02-03T12:21:43.423Z,101457.41
2023-02-03T12:24:18.905Z,101468.28
2023-02-03T12:26:51.477Z,101469.03
2023-02-03T12:29:21.232Z,101459.84
2023-02-03T12:31:55.455Z,101458.13
2023-02-03T12:34:35.259Z,101451.28
2023-02-03T12:37:12.280Z,101454.91
2023-02-03T12:39:41.975Z,101458.47
2023-02-03T12:42:20.688Z,101462.69
2023-02-03T12:44:53.898Z,101463.72
2023-02-03T12:47:30.476Z,101467.69
2023-02-03T12:50:04.409Z,101464.34
2023-02-03T12:52:40.913Z,101471.25
2023-02-03T12:55:37.364Z,101470.31
2023-02-03T12:58:10.652Z,101472.84
2023-02-03T13:00:54.562Z,101479.50
2023-02-03T13:03:40.519Z,101487.22
2023-02-03T13:06:16.283Z,101486.97
2023-02-03T13:09:01.731Z,101497.16
2023-02-03T13:11:41.377Z,101497.81
2023-02-03T13:14:16.612Z,101503.63
2023-02-03T13:16:45.151Z,101492.16
2023-02-03T13:19:15.173Z,101493.84
2023-02-03T13:21:42.120Z,101497.31
2023-02-03T13:24:10.928Z,101497.53
2023-02-03T13:26:56.372Z,101497.31
2023-02-03T13:29:23.137Z,101485.69
2023-02-03T13:32:03.747Z,101487.16
2023-02-03T13:34:36.958Z,101492.16
2023-02-03T13:37:22.510Z,101489.66
2023-02-03T13:39:56.104Z,101498.22
2023-02-03T13:42:23.042Z,101501.00
2023-02-03T13:44:56.540Z,101500.06
2023-02-03T13:47:26.621Z,101505.94
2023-02-03T13:49:59.918Z,101503.38
2023-02-03T13:52:29.158Z,101509.47
2023-02-03T13:54:56.789Z,101498.56
2023-02-03T13:57:28.172Z,101500.06
2023-02-03T13:59:54.825Z,101502.38
2023-02-03T14:02:21.363Z,101505.69
2023-02-03T14:04:48.442Z,101515.59
2023-02-03T14:07:38.344Z,101514.50
2023-02-03T14:10:17.003Z,101516.09
2023-02-03T14:12:46.471Z,101523.81
2023-02-03T14:15:31.449Z,101527.00
2023-02-03T14:18:07.202Z,101531.72
2023-02-03T14:20:36.897Z,101543.47
2023-02-03T14:23:06.366Z,101529.41
2023-02-03T14:25:37.709Z,101527.56
2023-02-03T14:28:06.482Z,101533.13
2023-02-03T14:30:33.305Z,101542.19
2023-02-03T14:33:01.662Z,101537.50
2023-02-03T14:35:40.795Z,101532.56
2023-02-03T14:38:09.396Z,101525.69
2023-02-03T14:40:59.578Z,101526.31
2023-02-03T14:43:33.148Z,101530.84
2023-02-03T14:46:05.956Z,101547.50
2023-02-03T14:48:52.238Z,101547.38
2023-02-03T14:51:22.427Z,101543.81
2023-02-03T14:54:00.596Z,101562.84
2023-02-03T14:57:04.635Z,101541.94
2023-02-03T14:59:41.901Z,101534.03
2023-02-03T15:02:15.010Z,101551.34
2023-02-03T15:04:42.223Z,101545.41
2023-02-03T15:07:08.887Z,101543.78
2023-02-03T15:09:53.620Z,101552.84
2023-02-03T15:12:24.319Z,101551.50
2023-02-03T15:14:50.900Z,101559.81
2023-02-03T15:17:24.586Z,101545.63
2023-02-03T15:19:51.814Z,101549.88
2023-02-03T15:22:23.181Z,101548.44
2023-02-03T15:24:52.632Z,101546.72
2023-02-03T15:27:29.921Z,101540.75
2023-02-03T15:29:59.984Z,101548.25
2023-02-03T15:32:29.905Z,101551.69
2023-02-03T15:34:57.946Z,101557.78
2023-02-03T15:37:32.930Z,101551.50
2023-02-03T15:40:05.309Z,101559.09
2023-02-03T15:42:38.421Z,101561.56
2023-02-03T15:45:23.735Z,101568.09
2023-02-03T15:47:52.580Z,101567.75
2023-02-03T15:50:19.149Z,101569.56
2023-02-03T15:52:46.854Z,101570.75
2023-02-03T15:55:19.139Z,101574.69
2023-02-03T15:57:48.291Z,101565.50
2023-02-03T16:00:20.738Z,101577.25
2023-02-03T16:02:47.506Z,101573.75
2023-02-03T16:05:31.768Z,101570.19
2023-02-03T16:08:18.582Z,101565.00
2023-02-03T16:10:45.281Z,101573.59
2023-02-03T16:13:18.077Z,101570.09
2023-02-03T16:15:44.714Z,101574.34
2023-02-03T16:18:18.159Z,101580.25
2023-02-03T16:20:49.360Z,101581.94
2023-02-03T16:23:23.504Z,101592.06
2023-02-03T16:26:03.463Z,101589.50
2023-02-03T16:28:48.772Z,101589.06
2023-02-03T16:31:37.841Z,101583.66
2023-02-03T16:34:33.764Z,101591.00
2023-02-03T16:37:19.121Z,101593.75
2023-02-03T16:40:04.391Z,101602.81
2023-02-03T16:42:57.298Z,101598.66
2023-02-03T16:45:42.650Z,101588.84
2023-02-03T16:48:29.585Z,101581.81
2023-02-03T16:50:59.348Z,101590.56
2023-02-03T16:53:27.578Z,101589.16
2023-02-03T16:55:55.234Z,101588.22
2023-02-03T16:58:22.120Z,101582.88
2023-02-03T17:00:49.873Z,101595.78
2023-02-03T17:03:17.752Z,101594.47
2023-02-03T17:05:45.041Z,101591.47
2023-02-03T17:08:12.104Z,101596.25
2023-02-03T17:10:40.103Z,101596.03
2023-02-03T17:13:08.010Z,101610.00
2023-02-03T17:15:35.135Z,101603.84
2023-02-03T17:18:01.721Z,101613.44
2023-02-03T17:20:28.319Z,101600.22
2023-02-03T17:22:56.904Z,101598.84
2023-02-03T17:25:23.808Z,101606.34
2023-02-03T17:27:50.443Z,101614.66
2023-02-03T17:30:17.186Z,101613.72
2023-02-03T17:32:44.726Z,101628.19
2023-02-03T17:35:11.426Z,101621.13
2023-02-03T17:37:37.985Z,101625.69
2023-02-03T17:53:51.243Z,101639.22
2023-02-03T17:56:19.432Z,101630.94
2023-02-03T17:58:46.557Z,101636.25
2023-02-03T18:01:16.244Z,101644.16
2023-02-03T18:03:50.413Z,101645.66
2023-02-03T18:06:18.426Z,101646.59
2023-02-03T18:08:45.781Z,101645.22
2023-02-03T18:11:13.156Z,101640.06
2023-02-03T18:13:40.372Z,101641.13
2023-02-03T18:16:08.185Z,101647.69
2023-02-03T18:18:34.868Z,101647.22
2023-02-03T18:21:05.951Z,101661.50
2023-02-03T18:23:32.727Z,101652.16
2023-02-03T18:25:59.865Z,101655.34
2023-02-03T18:28:26.892Z,101650.69
2023-02-03T18:30:58.667Z,101652.84
2023-02-03T18:33:25.387Z,101648.47
2023-02-03T18:35:51.917Z,101655.38
2023-02-03T18:38:18.543Z,101653.59
2023-02-03T18:40:45.082Z,101653.59
2023-02-03T18:43:11.750Z,101657.75
2023-02-03T18:45:38.604Z,101664.69
2023-02-03T18:48:05.486Z,101673.44
2023-02-03T18:50:32.545Z,101663.19
2023-02-03T18:52:59.420Z,101669.38
2023-02-03T18:55:26.056Z,101671.81
2023-02-03T18:57:52.590Z,101668.75
2023-02-03T19:00:19.954Z,101675.81
2023-02-03T19:02:48.825Z,101681.22
2023-02-03T19:05:15.524Z,101680.28
2023-02-03T19:07:42.180Z,101690.63
2023-02-03T19:10:09.005Z,101691.47
2023-02-03T19:12:35.561Z,101696.41
2023-02-03T19:15:02.225Z,101708.03
2023-02-03T19:17:29.240Z,101703.47
2023-02-03T19:19:55.855Z,101703.16
2023-02-03T19:22:22.510Z,101708.50
2023-02-03T19:24:49.094Z,101703.63
2023-02-03T19:27:15.627Z,101692.50
2023-02-03T19:29:42.254Z,101703.81
2023-02-03T19:32:09.771Z,101698.88
2023-02-03T19:34:36.467Z,101700.56
2023-02-03T19:37:03.038Z,101705.28
2023-02-03T19:39:31.997Z,101710.56
2023-02-03T19:41:58.826Z,101713.19
2023-02-03T19:44:25.775Z,101722.72
2023-02-03T19:46:52.382Z,101721.09
2023-02-03T19:49:19.530Z,101727.69
2023-02-03T19:51:46.053Z,101734.78
2023-02-03T19:54:16.462Z,101746.25
2023-02-03T19:56:43.725Z,101746.41
2023-02-03T19:59:10.575Z,101734.25
2023-02-03T20:01:37.359Z,101732.09
2023-02-03T20:04:04.245Z,101729.03
2023-02-03T20:06:31.765Z,101733.06
2023-02-03T20:09:01.701Z,101722.41
2023-02-03T20:11:28.744Z,101732.47
2023-02-03T20:13:55.518Z,101730.94
2023-02-03T20:16:22.118Z,101738.28
2023-02-03T20:18:49.399Z,101737.22
2023-02-03T20:21:16.058Z,101741.94
2023-02-03T20:23:42.969Z,101742.91
2023-02-03T20:26:09.514Z,101739.97
2023-02-03T20:28:36.170Z,101744.22
2023-02-03T20:31:03.006Z,101750.72
2023-02-03T20:33:30.310Z,101752.25
2023-02-03T20:35:57.213Z,101763.72
2023-02-03T20:38:24.150Z,101763.22
2023-02-03T20:40:50.819Z,101758.09
2023-02-03T20:43:18.923Z,101763.25
2023-02-03T20:45:46.831Z,101766.19
2023-02-03T20:48:14.419Z,101773.03
2023-02-03T20:50:50.348Z,101781.22
2023-02-03T20:53:18.641Z,101798.03
2023-02-03T20:55:45.687Z,101799.09
2023-02-03T20:58:27.786Z,101794.63
2023-02-03T21:00:57.319Z,101795.38
2023-02-03T21:03:42.719Z,101810.75
2023-02-03T21:06:16.742Z,101803.34
2023-02-03T21:08:44.322Z,101804.41
2023-02-03T21:11:15.576Z,101802.59
2023-02-03T21:13:45.322Z,101803.38
2023-02-03T21:16:19.000Z,101813.16
2023-02-03T21:18:55.168Z,101815.25
2023-02-03T21:21:29.464Z,101817.44
2023-02-03T21:23:56.079Z,101827.03
2023-02-03T21:26:23.644Z,101826.75
2023-02-03T21:28:53.536Z,101823.50
2023-02-03T21:31:27.928Z,101821.41
2023-02-03T21:33:55.933Z,101817.88
2023-02-03T21:36:24.368Z,101818.31
2023-02-03T21:38:53.607Z,101817.00
2023-02-03T21:41:20.860Z,101816.25
2023-02-03T21:43:49.300Z,101822.69
2023-02-03T21:46:16.659Z,101829.72
2023-02-03T21:48:45.231Z,101822.78
2023-02-03T21:51:20.620Z,101830.56
2023-02-03T21:54:00.605Z,101833.44
2023-02-03T21:56:28.631Z,101844.53
2023-02-03T21:58:59.962Z,101847.44
2023-02-03T22:01:29.689Z,101857.72
2023-02-03T22:03:56.397Z,101864.09
2023-02-03T22:06:24.555Z,101863.25
2023-02-03T22:08:52.643Z,101857.63
2023-02-03T22:11:20.432Z,101862.09
2023-02-03T22:13:47.645Z,101867.53
2023-02-03T22:16:17.050Z,101865.75
2023-02-03T22:18:47.192Z,101860.25
2023-02-03T22:21:14.721Z,101868.25
2023-02-03T22:23:41.427Z,101878.03
2023-02-03T22:26:08.696Z,101875.94
2023-02-03T22:28:35.623Z,101878.06
2023-02-03T22:31:05.302Z,101875.53
2023-02-03T22:33:32.096Z,101886.59
2023-02-03T22:35:58.728Z,101898.72
2023-02-03T22:38:25.710Z,101891.13
2023-02-03T22:40:53.107Z,101895.44
2023-02-03T22:43:19.749Z,101894.16
2023-02-03T22:45:46.498Z,101897.75
2023-02-03T22:48:13.113Z,101898.47
2023-02-03T22:50:39.890Z,101887.34
2023-02-03T22:53:07.124Z,101884.13
2023-02-03T22:55:33.801Z,101893.06
2023-02-03T22:58:00.424Z,101898.38
2023-02-03T23:00:27.275Z,101888.31
2023-02-03T23:02:54.082Z,101898.47
2023-02-03T23:05:21.150Z,101897.41
2023-02-03T23:07:48.047Z,101893.69
2023-02-03T23:10:17.494Z,101902.78
2023-02-03T23:12:44.397Z,101906.31
2023-02-03T23:15:11.562Z,101911.06
2023-02-03T23:17:38.371Z,101917.91
2023-02-03T23:20:06.104Z,101915.41
2023-02-03T23:22:32.671Z,101912.28
2023-02-03T23:25:00.448Z,101908.88
2023-02-03T23:27:27.287Z,101913.34
2023-02-03T23:29:54.304Z,101904.50
2023-02-03T23:32:20.940Z,101904.00
2023-02-03T23:35:05.922Z,101910.84
2023-02-03T23:37:32.618Z,101906.66
2023-02-03T23:39:59.206Z,101906.78
2023-02-03T23:42:25.937Z,101902.50
2023-02-03T23:44:52.738Z,101899.72
2023-02-03T23:47:19.379Z,101899.63
2023-02-03T23:49:45.918Z,101901.31
2023-02-03T23:52:12.582Z,101897.81
2023-02-03T23:54:39.150Z,101902.28
2023-02-03T23:57:05.913Z,101905.94
2023-02-03T23:59:32.493Z,101900.59
